createdAt,value
2022-12-27T00:02:53.686Z,98100.59
2022-12-27T00:06:57.041Z,98114.09
2022-12-27T00:11:06.655Z,98121.25
2022-12-27T00:15:10.754Z,98128.25
2022-12-27T00:19:15.319Z,98129.81
2022-12-27T00:23:18.587Z,98127.66
2022-12-27T00:27:21.672Z,98118.66
2022-12-27T00:31:26.325Z,98132.38
2022-12-27T00:35:30.767Z,98155.16
2022-12-27T00:39:34.145Z,98147.31
2022-12-27T00:43:37.672Z,98163.94
2022-12-27T00:47:41.006Z,98171.06
2022-12-27T00:51:45.639Z,98187.69
2022-12-27T00:55:48.974Z,98189.75
2022-12-27T00:59:52.234Z,98195.94
2022-12-27T01:03:55.690Z,98203.22
2022-12-27T01:08:00.509Z,98220.81
2022-12-27T01:12:03.524Z,98224.66
2022-12-27T01:16:10.838Z,98232.91
2022-12-27T01:20:14.087Z,98248.28
2022-12-27T01:24:18.991Z,98250.25
2022-12-27T01:28:22.072Z,98247.78
2022-12-27T01:32:26.181Z,98258.47
2022-12-27T01:36:31.020Z,98249.19
2022-12-27T01:40:36.837Z,98245.19
2022-12-27T01:44:52.031Z,98252.88
2022-12-27T01:48:56.227Z,98260.97
2022-12-27T01:53:06.969Z,98260.16
2022-12-27T01:57:12.374Z,98267.16
2022-12-27T02:01:19.102Z,98275.25
2022-12-27T02:05:25.639Z,98272.78
2022-12-27T02:09:39.974Z,98281.03
2022-12-27T02:13:47.286Z,98282.94
2022-12-27T02:17:50.659Z,98280.78
2022-12-27T02:22:14.341Z,98265.88
2022-12-27T02:26:40.815Z,98270.94
2022-12-27T02:30:48.440Z,98282.19
2022-12-27T02:35:01.041Z,98279.88
2022-12-27T02:39:05.165Z,98287.97
2022-12-27T02:43:26.067Z,98280.31
2022-12-27T02:47:49.584Z,98298.13
2022-12-27T02:52:26.459Z,98312.63
2022-12-27T02:56:55.222Z,98311.78
2022-12-27T03:01:27.716Z,98317.69
2022-12-27T03:05:46.191Z,98313.44
2022-12-27T03:10:21.678Z,98330.94
2022-12-27T03:14:55.881Z,98331.53
2022-12-27T03:19:08.144Z,98360.53
2022-12-27T03:23:31.032Z,98355.31
2022-12-27T03:27:36.538Z,98368.75
2022-12-27T03:32:01.851Z,98372.31
2022-12-27T03:36:26.836Z,98400.78
2022-12-27T03:40:39.651Z,98416.66
2022-12-27T03:44:41.406Z,98416.53
2022-12-27T03:48:56.692Z,98425.44
2022-12-27T03:53:07.982Z,98431.16
2022-12-27T03:57:15.321Z,98450.34
2022-12-27T04:01:18.771Z,98453.88
2022-12-27T04:05:21.794Z,98468.78
2022-12-27T04:09:42.380Z,98480.44
2022-12-27T04:14:04.689Z,98477.97
2022-12-27T04:18:25.166Z,98485.97
2022-12-27T04:22:45.994Z,98493.16
2022-12-27T04:27:06.281Z,98497.56
2022-12-27T04:31:28.365Z,98515.34
2022-12-27T04:35:31.516Z,98530.56
2022-12-27T04:39:34.762Z,98537.84
2022-12-27T04:43:55.106Z,98547.34
2022-12-27T04:48:17.687Z,98553.81
2022-12-27T04:52:56.116Z,98564.72
2022-12-27T04:56:59.363Z,98585.25
2022-12-27T05:01:21.857Z,98571.59
2022-12-27T05:05:27.324Z,98592.59
2022-12-27T05:09:48.002Z,98618.09
2022-12-27T05:14:03.490Z,98634.00
2022-12-27T05:18:06.932Z,98632.00
2022-12-27T05:22:29.169Z,98649.94
2022-12-27T05:26:33.365Z,98638.97
2022-12-27T05:30:37.792Z,98640.41
2022-12-27T05:34:41.045Z,98655.59
2022-12-27T05:38:45.920Z,98646.84
2022-12-27T05:42:49.254Z,98651.94
2022-12-27T05:46:52.234Z,98665.81
2022-12-27T05:50:55.476Z,98681.22
2022-12-27T05:55:00.378Z,98688.94
2022-12-27T05:59:03.651Z,98698.34
2022-12-27T06:03:06.749Z,98700.03
2022-12-27T06:07:12.372Z,98706.31
2022-12-27T06:11:19.004Z,98714.97
2022-12-27T06:15:22.126Z,98723.84
2022-12-27T06:19:25.400Z,98729.06
2022-12-27T06:23:28.619Z,98733.22
2022-12-27T06:27:33.346Z,98746.91
2022-12-27T06:31:36.645Z,98751.88
2022-12-27T06:35:39.716Z,98763.69
2022-12-27T06:39:42.985Z,98771.22
2022-12-27T06:43:48.367Z,98780.22
2022-12-27T06:47:51.397Z,98785.19
2022-12-27T06:51:59.537Z,98785.59
2022-12-27T06:56:05.672Z,98785.25
2022-12-27T07:00:13.671Z,98793.25
2022-12-27T07:04:17.055Z,98798.72
2022-12-27T07:08:20.134Z,98806.66
2022-12-27T07:12:23.409Z,98818.13
2022-12-27T07:16:31.205Z,98820.91
2022-12-27T07:20:34.630Z,98826.47
2022-12-27T07:24:37.690Z,98833.78
2022-12-27T07:28:41.084Z,98846.16
2022-12-27T07:32:45.717Z,98850.78
2022-12-27T07:36:49.375Z,98868.34
2022-12-27T07:40:52.395Z,98868.63
2022-12-27T07:44:55.679Z,98885.97
2022-12-27T07:49:01.176Z,98886.06
2022-12-27T07:53:04.439Z,98891.88
2022-12-27T07:57:07.507Z,98890.38
2022-12-27T08:01:12.023Z,98889.34
2022-12-27T08:05:20.359Z,98890.41
2022-12-27T08:09:30.338Z,98906.00
2022-12-27T08:13:33.711Z,98913.97
2022-12-27T08:17:36.960Z,98915.06
2022-12-27T08:21:41.790Z,98919.22
2022-12-27T08:25:49.072Z,98916.38
2022-12-27T08:29:52.360Z,98905.66
2022-12-27T08:33:58.852Z,98918.19
2022-12-27T08:38:04.203Z,98919.31
2022-12-27T08:42:07.407Z,98906.88
2022-12-27T08:46:10.995Z,98909.97
2022-12-27T08:50:14.300Z,98915.75
2022-12-27T08:54:19.172Z,98924.84
2022-12-27T08:58:22.229Z,98907.28
2022-12-27T09:02:25.532Z,98915.59
2022-12-27T09:06:29.082Z,98928.06
2022-12-27T09:10:33.806Z,98936.16
2022-12-27T09:14:36.998Z,98935.63
2022-12-27T09:18:40.471Z,98922.13
2022-12-27T09:22:43.639Z,98931.72
2022-12-27T09:26:48.285Z,98938.50
2022-12-27T09:30:51.535Z,98935.09
2022-12-27T09:34:55.702Z,98932.72
2022-12-27T09:39:00.018Z,98930.56
2022-12-27T09:43:19.557Z,98925.91
2022-12-27T09:47:28.554Z,98921.78
2022-12-27T09:51:36.127Z,98920.34
2022-12-27T09:55:44.553Z,98916.28
2022-12-27T09:59:51.745Z,98913.31
2022-12-27T10:03:55.606Z,98911.75
2022-12-27T10:08:13.895Z,98906.00
2022-12-27T10:12:32.065Z,98913.19
2022-12-27T10:16:43.213Z,98909.72
2022-12-27T10:21:03.530Z,98905.78
2022-12-27T10:25:13.365Z,98905.16
2022-12-27T10:29:22.221Z,98904.66
2022-12-27T10:33:32.672Z,98912.22
2022-12-27T10:37:35.738Z,98907.47
2022-12-27T10:41:50.525Z,98900.38
2022-12-27T10:45:54.703Z,98899.16
2022-12-27T10:50:11.569Z,98892.84
2022-12-27T11:04:59.344Z,98884.63
2022-12-27T11:09:27.409Z,98863.50
2022-12-27T11:13:30.413Z,98875.00
2022-12-27T11:17:48.031Z,98871.19
2022-12-27T11:21:52.687Z,98863.66
2022-12-27T11:25:59.586Z,98861.59
2022-12-27T11:30:03.975Z,98856.94
2022-12-27T11:34:14.593Z,98853.63
2022-12-27T11:38:25.620Z,98848.16
2022-12-27T11:42:38.707Z,98850.25
2022-12-27T11:46:46.673Z,98840.94
2022-12-27T14:59:38.551Z,98809.75
2022-12-27T15:04:05.058Z,98812.72
2022-12-27T15:08:24.272Z,98821.59
2022-12-27T15:12:37.117Z,98824.25
2022-12-27T15:16:45.806Z,98823.16
2022-12-27T15:21:24.569Z,98826.00
2022-12-27T15:25:44.669Z,98820.97
2022-12-27T15:30:01.967Z,98809.03
2022-12-27T15:34:24.389Z,98818.59
2022-12-27T15:38:42.517Z,98812.81
2022-12-27T15:42:55.425Z,98822.06
2022-12-27T15:47:37.497Z,98817.41
2022-12-27T15:51:50.529Z,98802.34
2022-12-27T15:56:12.589Z,98806.97
2022-12-27T16:00:33.318Z,98808.94
2022-12-27T16:04:48.418Z,98814.66
2022-12-27T16:09:24.860Z,98808.75
2022-12-27T16:13:41.866Z,98812.72
2022-12-27T16:17:56.904Z,98819.72
2022-12-27T16:22:00.450Z,98833.91
2022-12-27T16:26:07.753Z,98839.41
2022-12-27T16:30:12.168Z,98845.00
2022-12-27T16:34:25.926Z,98850.38
2022-12-27T16:38:32.318Z,98833.63
2022-12-27T16:43:10.872Z,98848.72
2022-12-27T16:47:50.004Z,98849.44
2022-12-27T16:52:20.071Z,98850.19
2022-12-27T16:56:48.286Z,98839.84
2022-12-27T17:00:52.978Z,98833.81
2022-12-27T17:05:00.667Z,98836.50
2022-12-27T17:09:43.172Z,98840.63
2022-12-27T17:13:51.278Z,98830.59
2022-12-27T17:17:58.618Z,98835.97
2022-12-27T17:22:05.133Z,98828.44
2022-12-27T17:26:23.758Z,98837.31
2022-12-27T17:30:38.488Z,98842.91
2022-12-27T17:34:55.127Z,98844.22
2022-12-27T17:39:22.960Z,98831.84
2022-12-27T17:43:54.206Z,98831.38
2022-12-27T17:48:10.331Z,98830.69
2022-12-27T17:52:35.895Z,98825.50
2022-12-27T17:57:04.888Z,98827.16
2022-12-27T18:01:08.341Z,98820.53
2022-12-27T18:05:16.232Z,98817.13
2022-12-27T18:09:34.000Z,98817.41
2022-12-27T18:13:41.261Z,98815.31
2022-12-27T18:17:48.074Z,98810.78
2022-12-27T18:22:01.382Z,98809.50
2022-12-27T18:26:13.504Z,98805.97
2022-12-27T18:30:17.060Z,98791.25
2022-12-27T18:34:26.947Z,98797.91
2022-12-27T18:38:36.395Z,98795.19
2022-12-27T18:42:45.108Z,98797.31
2022-12-27T18:46:51.400Z,98791.53
2022-12-27T18:50:58.401Z,98793.38
2022-12-27T18:55:19.321Z,98787.97
2022-12-27T18:59:26.575Z,98791.34
2022-12-27T19:03:35.227Z,98785.47
2022-12-27T19:07:42.179Z,98790.66
2022-12-27T19:11:54.478Z,98783.44
2022-12-27T19:16:02.525Z,98776.06
2022-12-27T19:20:10.037Z,98785.38
2022-12-27T19:24:32.959Z,98784.91
2022-12-27T19:28:37.713Z,98781.19
2022-12-27T19:32:42.393Z,98773.03
2022-12-27T19:36:47.299Z,98777.22
2022-12-27T19:40:59.536Z,98776.06
2022-12-27T19:45:10.859Z,98783.63
2022-12-27T19:53:39.740Z,98779.22
2022-12-27T19:57:44.498Z,98779.69
2022-12-27T20:01:49.813Z,98768.28
2022-12-27T20:06:13.587Z,98776.38
2022-12-27T20:10:18.737Z,98774.00
2022-12-27T20:14:21.903Z,98769.84
2022-12-27T20:18:28.181Z,98764.69
2022-12-27T20:22:31.272Z,98762.75
2022-12-27T20:26:34.763Z,98760.06
2022-12-27T20:30:39.737Z,98772.78
2022-12-27T20:34:44.526Z,98766.81
2022-12-27T20:38:47.731Z,98776.28
2022-12-27T20:42:51.293Z,98769.66
2022-12-27T20:46:54.447Z,98774.34
2022-12-27T20:50:59.318Z,98758.63
2022-12-27T20:55:02.500Z,98755.88
2022-12-27T20:59:06.020Z,98759.06
2022-12-27T21:03:11.149Z,98766.53
2022-12-27T21:07:16.164Z,98757.69
2022-12-27T21:11:21.445Z,98762.50
2022-12-27T21:15:24.828Z,98760.41
2022-12-27T21:19:27.896Z,98759.19
2022-12-27T21:23:34.769Z,98759.63
2022-12-27T21:27:37.989Z,98761.78
2022-12-27T21:31:41.436Z,98757.19
2022-12-27T21:35:44.868Z,98761.19
2022-12-27T21:39:49.612Z,98765.19
2022-12-27T21:43:56.122Z,98757.13
2022-12-27T21:47:59.443Z,98760.16
2022-12-27T21:52:02.599Z,98756.22
2022-12-27T21:56:08.189Z,98754.81
2022-12-27T22:00:13.068Z,98748.28
2022-12-27T22:04:16.273Z,98756.25
2022-12-27T22:08:19.331Z,98763.38
2022-12-27T22:12:24.436Z,98762.88
2022-12-27T22:16:29.348Z,98766.03
2022-12-27T22:20:32.665Z,98752.97
2022-12-27T22:24:35.802Z,98762.53
2022-12-27T22:28:40.777Z,98748.44
2022-12-27T22:32:43.845Z,98742.91
2022-12-27T22:36:47.579Z,98737.44
2022-12-27T22:40:51.016Z,98738.75
2022-12-27T22:44:55.975Z,98728.06
2022-12-27T22:49:02.683Z,98734.22
2022-12-27T22:53:06.163Z,98741.84
2022-12-27T22:57:09.176Z,98736.50
2022-12-27T23:01:15.152Z,98721.69
2022-12-27T23:05:18.521Z,98723.03
2022-12-27T23:14:43.475Z,98711.84
2022-12-27T23:18:48.127Z,98705.81
2022-12-27T23:22:51.429Z,98710.13
2022-12-27T23:26:54.577Z,98700.00
2022-12-27T23:30:58.091Z,98690.81
2022-12-27T23:35:02.757Z,98684.19
2022-12-27T23:39:06.772Z,98675.09
2022-12-27T23:43:42.183Z,98680.44
2022-12-27T23:47:33.158Z,98695.16
2022-12-27T23:55:45.024Z,98670.94
2022-12-27T23:59:49.513Z,98667.81
